createdAt,value
2019-02-26T00:00:56.861Z,82.43
2019-02-26T00:01:57.558Z,81.57
2019-02-26T00:02:59.791Z,81.95
2019-02-26T00:03:55.810Z,82.52
2019-02-26T00:04:56.416Z,82.71
2019-02-26T00:05:56.797Z,82.52
2019-02-26T00:06:55.866Z,82.14
2019-02-26T00:07:56.157Z,80.91
2019-02-26T00:08:56.589Z,81.57
2019-02-26T00:09:57.389Z,81.57
2019-02-26T00:10:58.523Z,81.57
2019-02-26T00:11:54.767Z,81.10
2019-02-26T00:12:54.628Z,80.72
2019-02-26T00:13:56.733Z,80.63
2019-02-26T00:14:55.041Z,80.15
2019-02-26T00:15:54.240Z,80.63
2019-02-26T00:16:54.109Z,81.76
2019-02-26T00:17:53.976Z,80.91
2019-02-26T00:18:53.845Z,78.07
2019-02-26T00:19:53.714Z,78.26
2019-02-26T00:20:54.059Z,78.64
2019-02-26T00:21:54.347Z,78.64
2019-02-26T00:22:55.243Z,79.96
2019-02-26T00:23:53.220Z,80.82
2019-02-26T00:24:53.059Z,80.91
2019-02-26T00:25:52.927Z,80.25
2019-02-26T00:26:52.796Z,79.11
2019-02-26T00:27:55.844Z,77.88
2019-02-26T00:28:52.536Z,77.50
2019-02-26T00:29:53.067Z,77.97
2019-02-26T00:30:52.272Z,78.45
2019-02-26T00:31:53.007Z,79.02
2019-02-26T00:32:53.303Z,79.02
2019-02-26T00:33:51.879Z,79.39
2019-02-26T00:34:53.137Z,80.06
2019-02-26T00:35:51.620Z,80.53
2019-02-26T00:36:51.487Z,80.63
2019-02-26T00:37:53.328Z,80.44
2019-02-26T00:38:51.389Z,81.10
2019-02-26T00:39:51.842Z,81.57
2019-02-26T00:40:50.968Z,81.67
2019-02-26T00:41:53.261Z,81.38
2019-02-26T00:42:54.314Z,78.92
2019-02-26T00:43:53.164Z,76.27
2019-02-26T00:44:53.318Z,76.17
2019-02-26T00:45:51.037Z,73.65
2019-02-26T00:46:53.410Z,74.32
2019-02-26T00:47:50.049Z,76.36
2019-02-26T00:48:49.915Z,77.50
2019-02-26T00:49:51.105Z,79.77
2019-02-26T00:50:49.654Z,80.06
2019-02-26T00:51:52.354Z,78.26
2019-02-26T00:52:49.399Z,77.22
2019-02-26T00:53:52.802Z,78.35
2019-02-26T00:54:50.938Z,78.35
2019-02-26T00:55:49.000Z,79.21
2019-02-26T00:56:48.868Z,79.96
2019-02-26T00:57:48.737Z,80.25
2019-02-26T00:58:50.317Z,81.20
2019-02-26T00:59:48.475Z,80.82
2019-02-26T01:00:48.343Z,80.82
2019-02-26T01:01:50.234Z,79.77
2019-02-26T01:02:48.081Z,80.06
2019-02-26T01:03:49.392Z,80.15
2019-02-26T01:04:48.535Z,80.15
2019-02-26T01:05:47.689Z,79.87
2019-02-26T01:06:47.556Z,79.11
2019-02-26T01:07:50.233Z,78.73
2019-02-26T01:08:47.298Z,79.77
2019-02-26T01:09:47.887Z,79.49
2019-02-26T01:10:47.036Z,78.73
2019-02-26T01:11:47.695Z,78.45
2019-02-26T01:12:46.776Z,79.02
2019-02-26T01:13:48.284Z,80.25
2019-02-26T01:14:48.111Z,79.87
2019-02-26T01:15:46.379Z,80.25
2019-02-26T01:16:48.204Z,80.53
2019-02-26T01:17:46.117Z,79.96
2019-02-26T01:18:47.253Z,80.44
2019-02-26T01:19:45.857Z,80.53
2019-02-26T01:20:48.345Z,79.02
2019-02-26T01:21:45.591Z,79.30
2019-02-26T01:22:45.652Z,78.64
2019-02-26T01:23:45.331Z,78.35
2019-02-26T01:24:45.199Z,78.16
2019-02-26T01:25:45.068Z,78.73
2019-02-26T01:26:44.939Z,78.35
2019-02-26T01:27:46.021Z,78.07
2019-02-26T01:28:48.292Z,78.26
2019-02-26T01:29:47.141Z,77.50
2019-02-26T01:30:44.412Z,77.59
2019-02-26T01:31:44.280Z,77.78
2019-02-26T01:32:44.147Z,77.50
2019-02-26T01:33:44.016Z,77.88
2019-02-26T01:34:45.003Z,77.69
2019-02-26T01:35:43.755Z,77.59
2019-02-26T01:36:44.971Z,77.50
2019-02-26T01:37:43.499Z,77.69
2019-02-26T01:38:44.377Z,77.50
2019-02-26T01:39:44.771Z,77.78
2019-02-26T01:40:45.668Z,77.69
2019-02-26T01:41:45.468Z,77.69
2019-02-26T01:42:47.201Z,77.50
2019-02-26T01:43:42.709Z,78.07
2019-02-26T01:44:44.381Z,78.07
2019-02-26T01:45:44.046Z,78.26
2019-02-26T01:46:42.317Z,78.16
2019-02-26T01:47:42.909Z,78.54
2019-02-26T01:48:42.051Z,78.73
2019-02-26T01:49:44.078Z,79.02
2019-02-26T01:50:41.787Z,78.73
2019-02-26T01:51:42.849Z,78.92
2019-02-26T01:52:41.534Z,78.35
2019-02-26T01:53:42.334Z,78.45
2019-02-26T01:54:41.264Z,78.16
2019-02-26T01:55:42.109Z,78.54
2019-02-26T01:56:41.002Z,77.97
2019-02-26T01:57:43.374Z,78.35
2019-02-26T01:58:40.738Z,79.02
2019-02-26T01:59:40.608Z,78.92
2019-02-26T02:00:40.809Z,78.92
2019-02-26T02:01:44.107Z,78.64
2019-02-26T02:02:40.215Z,79.02
2019-02-26T02:03:40.084Z,78.07
2019-02-26T02:04:41.186Z,78.26
2019-02-26T02:05:39.820Z,78.73
2019-02-26T02:06:41.331Z,78.54
2019-02-26T02:07:39.571Z,79.21
2019-02-26T02:08:43.383Z,78.54
2019-02-26T02:09:39.304Z,79.02
2019-02-26T02:10:39.172Z,78.16
2019-02-26T02:11:40.743Z,77.88
2019-02-26T02:12:39.599Z,77.50
2019-02-26T02:13:41.370Z,77.69
2019-02-26T02:14:38.640Z,78.26
2019-02-26T02:15:40.077Z,78.92
2019-02-26T02:16:38.378Z,78.73
2019-02-26T02:17:40.017Z,77.50
2019-02-26T02:18:38.116Z,76.84
2019-02-26T02:19:37.986Z,77.50
2019-02-26T02:20:37.852Z,77.69
2019-02-26T02:21:37.719Z,77.78
2019-02-26T02:22:39.454Z,77.50
2019-02-26T02:23:37.459Z,76.93
2019-02-26T02:24:39.247Z,76.84
2019-02-26T02:25:38.746Z,76.46
2019-02-26T02:26:37.065Z,76.93
2019-02-26T02:27:36.961Z,77.03
2019-02-26T02:28:36.802Z,76.74
2019-02-26T02:29:36.674Z,77.12
2019-02-26T02:30:39.038Z,76.74
2019-02-26T02:31:37.825Z,77.12
2019-02-26T02:32:36.278Z,77.12
2019-02-26T02:33:37.557Z,77.40
2019-02-26T02:34:36.764Z,77.59
2019-02-26T02:35:35.884Z,77.78
2019-02-26T02:36:35.753Z,78.07
2019-02-26T02:37:35.622Z,77.69
2019-02-26T02:38:37.107Z,76.46
2019-02-26T02:39:35.359Z,76.55
2019-02-26T02:40:38.033Z,76.46
2019-02-26T02:41:35.094Z,76.27
2019-02-26T02:42:37.509Z,76.93
2019-02-26T02:43:34.837Z,77.50
2019-02-26T02:44:34.706Z,77.50
2019-02-26T02:45:34.573Z,77.50
2019-02-26T02:46:36.550Z,77.03
2019-02-26T02:47:36.331Z,77.22
2019-02-26T02:48:34.177Z,76.36
2019-02-26T02:49:37.437Z,76.08
2019-02-26T02:50:33.917Z,75.79
2019-02-26T02:51:34.749Z,76.55
2019-02-26T02:52:35.363Z,76.65
2019-02-26T02:53:33.523Z,76.93
2019-02-26T02:54:33.393Z,76.93
2019-02-26T02:55:33.259Z,77.03
2019-02-26T02:56:34.078Z,77.31
2019-02-26T02:57:34.423Z,75.79
2019-02-26T02:58:32.864Z,76.08
2019-02-26T02:59:34.041Z,75.42
2019-02-26T03:00:34.480Z,76.36
2019-02-26T03:01:32.471Z,77.03
2019-02-26T03:02:37.471Z,77.22
2019-02-26T03:03:32.210Z,77.40
2019-02-26T03:04:34.690Z,77.69
2019-02-26T03:05:34.361Z,77.03
2019-02-26T03:06:32.491Z,77.78
2019-02-26T03:07:31.685Z,76.65
2019-02-26T03:08:31.557Z,76.65
2019-02-26T03:09:34.365Z,77.50
2019-02-26T03:10:34.116Z,77.59
2019-02-26T03:11:36.060Z,76.65
2019-02-26T03:12:31.028Z,76.17
2019-02-26T03:13:30.899Z,75.98
2019-02-26T03:14:33.073Z,77.50
2019-02-26T03:15:35.236Z,77.03
2019-02-26T03:16:30.501Z,77.50
2019-02-26T03:17:30.373Z,77.22
2019-02-26T03:18:30.245Z,77.31
2019-02-26T03:19:32.677Z,77.78
2019-02-26T03:20:31.363Z,77.50
2019-02-26T03:21:30.658Z,75.98
2019-02-26T03:22:29.715Z,76.36
2019-02-26T03:23:30.847Z,77.59
2019-02-26T03:24:31.400Z,78.35
2019-02-26T03:25:29.342Z,79.11
2019-02-26T03:26:29.190Z,79.11
2019-02-26T03:27:31.309Z,78.73
2019-02-26T03:28:28.928Z,78.64
2019-02-26T03:29:28.799Z,78.07
2019-02-26T03:30:36.973Z,77.40
2019-02-26T03:31:33.862Z,77.78
2019-02-26T03:32:28.407Z,77.59
2019-02-26T03:33:28.273Z,77.40
2019-02-26T03:34:28.162Z,73.90
2019-02-26T03:35:28.012Z,72.29
2019-02-26T03:36:27.878Z,73.05
2019-02-26T03:37:28.701Z,72.86
2019-02-26T03:38:28.871Z,72.00
2019-02-26T03:39:27.486Z,67.83
2019-02-26T03:40:29.889Z,68.88
2019-02-26T03:41:28.845Z,71.91
2019-02-26T03:42:27.096Z,72.29
2019-02-26T03:43:28.635Z,72.19
2019-02-26T03:44:29.581Z,72.77
2019-02-26T03:45:26.698Z,73.24
2019-02-26T03:46:26.572Z,73.52
2019-02-26T03:47:26.443Z,73.52
2019-02-26T03:48:26.305Z,74.37
2019-02-26T03:49:27.073Z,75.23
2019-02-26T03:50:27.185Z,75.13
2019-02-26T03:51:25.917Z,74.85
2019-02-26T03:52:25.784Z,75.70
2019-02-26T03:53:28.090Z,74.18
2019-02-26T03:54:25.518Z,74.18
2019-02-26T03:55:25.395Z,73.99
2019-02-26T03:56:25.255Z,74.37
2019-02-26T03:57:25.131Z,73.52
2019-02-26T03:58:24.993Z,73.24
2019-02-26T03:59:24.864Z,73.61
2019-02-26T04:00:24.735Z,73.43
2019-02-26T04:01:24.604Z,73.33
2019-02-26T04:02:25.442Z,73.33
2019-02-26T04:03:24.340Z,72.77
2019-02-26T04:04:26.155Z,73.24
2019-02-26T04:05:24.079Z,72.57
2019-02-26T04:06:23.947Z,73.90
2019-02-26T04:07:25.999Z,73.61
2019-02-26T04:08:24.307Z,73.80
2019-02-26T04:09:23.551Z,73.14
2019-02-26T04:10:23.433Z,72.77
2019-02-26T04:11:25.758Z,73.52
2019-02-26T04:12:23.156Z,73.80
2019-02-26T04:13:23.027Z,74.18
2019-02-26T04:14:25.616Z,74.66
2019-02-26T04:15:26.638Z,74.18
2019-02-26T04:16:22.633Z,73.52
2019-02-26T04:17:25.420Z,73.24
2019-02-26T04:18:22.369Z,72.86
2019-02-26T04:19:26.151Z,72.86
2019-02-26T04:20:22.106Z,72.48
2019-02-26T04:21:21.976Z,73.33
2019-02-26T04:22:23.366Z,73.52
2019-02-26T04:23:22.011Z,73.14
2019-02-26T04:24:23.147Z,73.24
2019-02-26T04:25:22.226Z,72.96
2019-02-26T04:26:23.420Z,72.48
2019-02-26T04:27:21.190Z,73.33
2019-02-26T04:28:21.059Z,73.33
2019-02-26T04:29:20.925Z,73.61
2019-02-26T04:30:20.797Z,73.24
2019-02-26T04:31:21.459Z,71.53
2019-02-26T04:32:21.436Z,71.53
2019-02-26T04:33:20.401Z,72.19
2019-02-26T04:34:20.269Z,73.05
2019-02-26T04:35:20.138Z,72.00
2019-02-26T04:36:22.248Z,72.77
2019-02-26T04:37:19.875Z,73.05
2019-02-26T04:38:20.731Z,72.48
2019-02-26T04:39:22.101Z,72.48
2019-02-26T04:40:19.479Z,72.86
2019-02-26T04:41:19.353Z,72.38
2019-02-26T04:42:20.545Z,72.38
2019-02-26T04:43:19.090Z,72.86
2019-02-26T04:44:20.046Z,72.67
2019-02-26T04:45:18.825Z,72.77
2019-02-26T04:46:18.696Z,72.57
2019-02-26T04:47:21.248Z,73.43
2019-02-26T04:48:20.184Z,73.71
2019-02-26T04:49:18.299Z,73.52
2019-02-26T04:50:18.170Z,73.24
2019-02-26T04:51:18.042Z,73.43
2019-02-26T04:52:17.909Z,72.86
2019-02-26T04:53:17.776Z,72.77
2019-02-26T04:54:23.940Z,73.05
2019-02-26T04:55:17.524Z,73.52
2019-02-26T04:56:17.382Z,74.09
2019-02-26T04:57:17.250Z,74.37
2019-02-26T04:58:18.358Z,74.56
2019-02-26T04:59:17.070Z,74.18
2019-02-26T05:00:17.480Z,74.18
2019-02-26T05:01:19.031Z,73.24
2019-02-26T05:02:16.592Z,73.24
2019-02-26T05:03:18.102Z,72.77
2019-02-26T05:04:16.333Z,72.86
2019-02-26T05:05:16.207Z,72.67
2019-02-26T05:06:16.072Z,73.24
2019-02-26T05:07:19.181Z,73.14
2019-02-26T05:08:17.748Z,72.86
2019-02-26T05:09:15.674Z,73.24
2019-02-26T05:10:17.269Z,72.77
2019-02-26T05:11:30.871Z,72.67
2019-02-26T05:12:15.283Z,72.77
2019-02-26T05:13:15.151Z,72.86
2019-02-26T05:14:20.447Z,73.05
2019-02-26T05:15:19.804Z,71.91
2019-02-26T05:16:14.757Z,71.62
2019-02-26T05:17:14.627Z,70.20
2019-02-26T05:18:14.499Z,71.81
2019-02-26T05:19:16.389Z,72.19
2019-02-26T05:20:16.512Z,72.29
2019-02-26T05:21:14.104Z,72.67
2019-02-26T05:22:13.972Z,73.61
2019-02-26T05:23:13.837Z,72.86
2019-02-26T05:24:15.714Z,72.29
2019-02-26T05:25:16.336Z,72.19
2019-02-26T05:26:15.082Z,72.29
2019-02-26T05:27:15.621Z,71.91
2019-02-26T05:28:15.597Z,71.91
2019-02-26T05:29:13.473Z,72.38
2019-02-26T05:30:16.270Z,72.00
2019-02-26T05:31:15.165Z,71.25
2019-02-26T05:32:12.658Z,70.49
2019-02-26T05:33:12.525Z,71.44
2019-02-26T05:34:14.412Z,71.91
2019-02-26T05:35:14.382Z,73.05
2019-02-26T05:36:14.393Z,72.10
2019-02-26T05:37:13.805Z,71.06
2019-02-26T05:38:11.871Z,71.81
2019-02-26T05:39:11.738Z,71.91
2019-02-26T05:40:14.950Z,71.44
2019-02-26T05:41:11.475Z,70.78
2019-02-26T05:42:11.343Z,70.39
2019-02-26T05:43:11.226Z,70.68
2019-02-26T05:44:11.083Z,70.39
2019-02-26T05:45:10.951Z,70.20
2019-02-26T05:46:10.820Z,70.58
2019-02-26T05:47:10.697Z,70.78
2019-02-26T05:48:12.506Z,70.87
2019-02-26T05:49:13.526Z,72.19
2019-02-26T05:50:16.325Z,71.44
2019-02-26T05:51:11.447Z,70.87
2019-02-26T05:52:10.044Z,71.62
2019-02-26T05:53:11.411Z,71.72
2019-02-26T05:54:12.198Z,70.39
2019-02-26T05:55:09.639Z,70.78
2019-02-26T05:56:11.551Z,70.68
2019-02-26T05:57:15.305Z,71.44
2019-02-26T05:58:10.419Z,71.53
2019-02-26T05:59:09.479Z,70.58
2019-02-26T06:00:11.466Z,70.30
2019-02-26T06:01:08.850Z,70.30
2019-02-26T06:02:10.629Z,69.82
2019-02-26T06:03:09.674Z,69.73
2019-02-26T06:04:10.070Z,70.78
2019-02-26T06:05:08.327Z,71.34
2019-02-26T06:06:08.195Z,72.19
2019-02-26T06:07:08.069Z,71.81
2019-02-26T06:08:07.932Z,71.34
2019-02-26T06:09:07.937Z,70.58
2019-02-26T06:10:07.677Z,72.10
2019-02-26T06:11:07.549Z,72.57
2019-02-26T06:12:07.405Z,73.61
2019-02-26T06:13:08.121Z,73.61
2019-02-26T06:14:09.693Z,73.43
2019-02-26T06:15:08.109Z,73.33
2019-02-26T06:16:07.553Z,72.48
2019-02-26T06:17:07.294Z,71.72
2019-02-26T06:18:06.623Z,71.81
2019-02-26T06:19:08.325Z,71.53
2019-02-26T06:20:08.084Z,72.38
2019-02-26T06:21:06.230Z,72.77
2019-02-26T06:22:06.096Z,73.05
2019-02-26T06:23:05.967Z,73.05
2019-02-26T06:24:05.832Z,73.05
2019-02-26T06:25:09.580Z,72.96
2019-02-26T06:26:09.734Z,72.10
2019-02-26T06:27:08.618Z,72.29
2019-02-26T06:28:07.710Z,71.91
2019-02-26T06:29:05.190Z,71.34
2019-02-26T06:30:07.309Z,70.39
2019-02-26T06:31:04.919Z,69.92
2019-02-26T06:32:05.318Z,70.30
2019-02-26T06:33:06.669Z,70.58
2019-02-26T06:34:08.128Z,71.25
2019-02-26T06:35:06.194Z,71.72
2019-02-26T06:36:06.367Z,71.91
2019-02-26T06:37:05.207Z,71.91
2019-02-26T06:38:04.622Z,72.00
2019-02-26T06:39:05.936Z,72.29
2019-02-26T06:40:05.683Z,73.05
2019-02-26T06:41:03.604Z,73.14
2019-02-26T06:42:05.121Z,72.48
2019-02-26T06:43:03.339Z,72.19
2019-02-26T06:44:03.209Z,72.00
2019-02-26T06:45:04.036Z,71.28
2019-02-26T06:46:04.914Z,70.72
2019-02-26T06:47:04.669Z,70.81
2019-02-26T06:48:02.686Z,70.72
2019-02-26T06:49:02.556Z,71.95
2019-02-26T06:50:03.024Z,72.42
2019-02-26T06:51:04.595Z,72.04
2019-02-26T06:52:02.164Z,71.57
2019-02-26T06:53:04.408Z,70.53
2019-02-26T06:54:01.900Z,70.34
2019-02-26T06:55:03.560Z,70.34
2019-02-26T06:56:01.641Z,70.24
2019-02-26T06:57:01.508Z,71.76
2019-02-26T06:58:01.406Z,72.14
2019-02-26T06:59:02.977Z,72.42
2019-02-26T07:00:02.250Z,72.71
2019-02-26T07:01:00.983Z,73.75
2019-02-26T07:02:00.854Z,71.09
2019-02-26T07:03:02.636Z,69.29
2019-02-26T07:04:00.594Z,69.77
2019-02-26T07:05:00.463Z,70.62
2019-02-26T07:06:03.151Z,70.72
2019-02-26T07:07:01.924Z,70.81
2019-02-26T07:08:02.042Z,72.52
2019-02-26T07:08:59.939Z,75.45
2019-02-26T07:09:59.812Z,77.16
2019-02-26T07:10:59.679Z,76.97
2019-02-26T07:11:59.555Z,76.03
2019-02-26T07:12:59.421Z,74.88
2019-02-26T07:14:01.424Z,73.84
2019-02-26T07:14:59.158Z,72.71
2019-02-26T07:15:59.028Z,73.41
2019-02-26T07:16:59.168Z,72.74
2019-02-26T07:18:02.172Z,73.41
2019-02-26T07:18:59.011Z,73.50
2019-02-26T07:20:00.263Z,72.27
2019-02-26T07:21:00.255Z,71.51
2019-02-26T07:21:58.245Z,71.41
2019-02-26T07:22:58.117Z,70.47
2019-02-26T07:23:58.827Z,70.28
2019-02-26T07:24:59.792Z,69.99
2019-02-26T07:25:57.729Z,70.28
2019-02-26T07:26:57.596Z,69.80
2019-02-26T07:27:58.733Z,70.09
2019-02-26T07:28:57.339Z,70.37
2019-02-26T07:29:57.206Z,69.99
2019-02-26T07:30:57.072Z,70.31
2019-02-26T07:31:58.825Z,71.13
2019-02-26T07:32:56.816Z,73.12
2019-02-26T07:33:58.204Z,74.26
2019-02-26T07:34:58.098Z,75.31
2019-02-26T07:35:57.383Z,74.45
2019-02-26T07:36:56.295Z,73.60
2019-02-26T07:37:56.810Z,73.88
2019-02-26T07:38:56.529Z,72.74
2019-02-26T07:39:55.904Z,72.84
2019-02-26T07:40:56.538Z,73.31
2019-02-26T07:41:55.647Z,73.41
2019-02-26T07:42:55.518Z,73.07
2019-02-26T07:43:55.387Z,72.40
2019-02-26T07:44:55.261Z,70.59
2019-02-26T07:45:55.132Z,71.64
2019-02-26T07:46:54.999Z,71.92
2019-02-26T07:47:56.412Z,71.55
2019-02-26T07:48:57.162Z,71.55
2019-02-26T07:49:56.551Z,71.73
2019-02-26T07:50:54.482Z,71.73
2019-02-26T07:51:56.100Z,71.55
2019-02-26T07:52:56.535Z,71.55
2019-02-26T07:53:55.965Z,71.92
2019-02-26T07:54:53.965Z,71.55
2019-02-26T07:55:53.838Z,71.45
2019-02-26T07:56:55.121Z,71.64
2019-02-26T07:57:53.576Z,70.59
2019-02-26T07:58:56.949Z,70.40
2019-02-26T07:59:53.316Z,69.84
2019-02-26T08:00:53.186Z,70.03
2019-02-26T08:01:53.068Z,68.79
2019-02-26T08:02:56.379Z,68.79
2019-02-26T08:03:53.300Z,69.78
2019-02-26T08:04:52.667Z,70.63
2019-02-26T08:05:52.565Z,70.15
2019-02-26T08:06:54.231Z,72.21
2019-02-26T08:07:55.809Z,72.63
2019-02-26T08:08:52.159Z,72.30
2019-02-26T08:09:52.025Z,72.40
2019-02-26T08:10:53.126Z,72.40
2019-02-26T08:11:51.761Z,71.96
2019-02-26T08:12:51.633Z,69.78
2019-02-26T08:13:51.835Z,69.78
2019-02-26T08:14:51.380Z,69.21
2019-02-26T08:15:52.752Z,70.54
2019-02-26T08:16:53.642Z,71.96
2019-02-26T08:17:55.414Z,72.72
2019-02-26T08:18:52.187Z,72.63
2019-02-26T08:19:50.733Z,72.25
2019-02-26T08:20:52.339Z,71.01
2019-02-26T08:21:52.632Z,70.06
2019-02-26T08:22:51.646Z,69.30
2019-02-26T08:23:51.094Z,66.30
2019-02-26T08:24:50.947Z,65.54
2019-02-26T08:25:52.282Z,66.58
2019-02-26T08:26:49.868Z,66.58
2019-02-26T08:27:52.177Z,66.77
2019-02-26T08:28:49.576Z,66.20
2019-02-26T08:29:51.583Z,66.39
2019-02-26T08:30:49.913Z,67.15
2019-02-26T08:31:49.582Z,66.49
2019-02-26T08:32:53.423Z,66.30
2019-02-26T08:33:51.627Z,66.11
2019-02-26T08:34:48.808Z,65.92
2019-02-26T08:35:48.685Z,65.16
2019-02-26T08:36:48.553Z,63.54
2019-02-26T08:37:48.425Z,64.59
2019-02-26T08:38:48.298Z,65.82
2019-02-26T08:39:48.171Z,66.49
2019-02-26T08:40:48.039Z,67.72
2019-02-26T08:41:47.911Z,68.67
2019-02-26T08:42:47.798Z,66.39
2019-02-26T08:43:49.650Z,65.54
2019-02-26T08:44:48.666Z,63.64
2019-02-26T08:45:47.402Z,62.78
2019-02-26T08:46:48.946Z,61.74
2019-02-26T08:47:47.145Z,60.98
2019-02-26T08:48:48.443Z,61.93
2019-02-26T08:49:47.513Z,61.45
2019-02-26T08:50:48.308Z,57.65
2019-02-26T08:51:46.632Z,56.23
2019-02-26T08:52:49.463Z,55.09
2019-02-26T08:53:47.619Z,55.94
2019-02-26T08:54:46.249Z,55.18
2019-02-26T08:55:46.117Z,54.05
2019-02-26T08:56:45.989Z,54.43
2019-02-26T08:57:45.862Z,55.76
2019-02-26T08:58:45.736Z,56.39
2019-02-26T08:59:47.291Z,57.43
2019-02-26T09:00:45.480Z,57.53
2019-02-26T09:01:45.351Z,57.24
2019-02-26T09:02:49.490Z,57.56
2019-02-26T09:03:45.110Z,56.89
2019-02-26T09:04:47.336Z,55.57
2019-02-26T09:05:44.839Z,54.14
2019-02-26T09:06:44.711Z,53.95
2019-02-26T09:07:45.572Z,54.71
2019-02-26T09:08:44.453Z,55.66
2019-02-26T09:09:45.153Z,55.66
2019-02-26T09:10:46.337Z,54.26
2019-02-26T09:11:44.070Z,53.03
2019-02-26T09:12:45.962Z,51.48
2019-02-26T09:13:44.026Z,51.79
2019-02-26T09:14:45.712Z,49.79
2019-02-26T09:15:43.559Z,48.18
2019-02-26T09:16:43.444Z,52.36
2019-02-26T09:17:43.440Z,53.03
2019-02-26T09:18:43.174Z,55.11
2019-02-26T09:19:43.047Z,56.92
2019-02-26T09:20:42.920Z,57.97
2019-02-26T09:21:45.228Z,59.77
2019-02-26T09:22:45.757Z,61.77
2019-02-26T09:23:42.536Z,62.72
2019-02-26T09:24:42.415Z,62.15
2019-02-26T09:25:42.297Z,59.42
2019-02-26T09:26:42.157Z,53.34
2019-02-26T09:27:43.817Z,49.82
2019-02-26T09:28:41.904Z,48.39
2019-02-26T09:29:47.372Z,48.30
2019-02-26T09:30:41.646Z,48.58
2019-02-26T09:31:41.515Z,49.65
2019-02-26T09:32:44.192Z,47.66
2019-02-26T09:33:43.572Z,48.03
2019-02-26T09:34:41.136Z,47.47
2019-02-26T09:35:41.010Z,47.09
2019-02-26T09:36:40.880Z,46.42
2019-02-26T09:37:40.755Z,48.42
2019-02-26T09:38:41.956Z,49.94
2019-02-26T09:39:40.502Z,50.44
2019-02-26T09:40:40.374Z,49.87
2019-02-26T09:41:40.818Z,48.44
2019-02-26T09:42:40.123Z,47.11
2019-02-26T09:43:40.980Z,47.52
2019-02-26T09:44:39.867Z,48.58
2019-02-26T09:45:41.750Z,46.23
2019-02-26T09:46:41.979Z,43.37
2019-02-26T09:47:39.488Z,42.99
2019-02-26T09:48:41.072Z,41.92
2019-02-26T09:49:39.238Z,40.30
2019-02-26T09:50:41.326Z,39.73
2019-02-26T09:51:39.961Z,39.17
2019-02-26T09:52:38.866Z,38.51
2019-02-26T09:53:38.737Z,38.51
2019-02-26T09:54:42.639Z,38.32
2019-02-26T09:55:38.488Z,39.08
2019-02-26T09:56:38.366Z,39.75
2019-02-26T09:57:38.238Z,41.17
2019-02-26T09:58:40.352Z,41.08
2019-02-26T09:59:38.497Z,41.94
2019-02-26T10:00:37.865Z,41.94
2019-02-26T10:01:40.211Z,42.41
2019-02-26T10:02:40.032Z,43.37
2019-02-26T10:03:39.093Z,44.32
2019-02-26T10:04:37.366Z,44.32
2019-02-26T10:05:37.241Z,42.41
2019-02-26T10:06:37.988Z,41.75
2019-02-26T10:07:38.706Z,40.99
2019-02-26T10:08:36.875Z,40.91
2019-02-26T10:09:37.399Z,40.34
2019-02-26T10:10:39.187Z,39.10
2019-02-26T10:11:36.496Z,37.59
2019-02-26T10:12:37.037Z,36.83
2019-02-26T10:13:36.470Z,36.54
2019-02-26T10:14:38.390Z,37.49
2019-02-26T10:15:39.357Z,37.02
2019-02-26T10:16:35.877Z,36.25
2019-02-26T10:17:40.822Z,36.94
2019-02-26T10:18:37.330Z,37.04
2019-02-26T10:19:36.510Z,36.46
2019-02-26T10:20:35.411Z,36.08
2019-02-26T10:21:37.335Z,36.94
2019-02-26T10:22:36.165Z,36.66
2019-02-26T10:23:35.010Z,36.68
2019-02-26T10:24:37.208Z,38.76
2019-02-26T10:25:37.185Z,40.57
2019-02-26T10:26:36.618Z,41.45
2019-02-26T10:27:36.178Z,40.03
2019-02-26T10:28:37.265Z,39.27
2019-02-26T10:29:36.629Z,39.10
2019-02-26T10:30:36.982Z,37.76
2019-02-26T10:31:34.027Z,37.49
2019-02-26T10:32:33.896Z,36.15
2019-02-26T10:33:37.951Z,34.72
2019-02-26T10:34:33.652Z,33.19
2019-02-26T10:35:36.088Z,30.91
2019-02-26T10:36:35.976Z,30.33
2019-02-26T10:37:34.196Z,30.05
2019-02-26T10:38:33.630Z,30.33
2019-02-26T10:39:33.060Z,31.10
2019-02-26T10:40:35.606Z,31.48
2019-02-26T10:41:34.829Z,32.25
2019-02-26T10:42:39.647Z,32.36
2019-02-26T10:43:34.336Z,32.17
2019-02-26T10:44:32.436Z,32.73
2019-02-26T10:45:36.045Z,33.95
2019-02-26T10:46:34.090Z,36.15
2019-02-26T10:47:32.757Z,37.11
2019-02-26T10:48:31.953Z,36.52
2019-02-26T10:49:31.826Z,36.14
2019-02-26T10:50:32.211Z,37.40
2019-02-26T10:51:31.583Z,36.99
2019-02-26T10:52:31.458Z,36.14
2019-02-26T10:53:31.336Z,36.25
2019-02-26T10:54:34.671Z,36.15
2019-02-26T10:55:38.110Z,36.14
2019-02-26T10:56:36.263Z,37.09
2019-02-26T10:57:31.105Z,37.48
2019-02-26T10:58:30.728Z,37.09
2019-02-26T10:59:30.607Z,37.21
2019-02-26T11:00:34.039Z,37.59
2019-02-26T11:01:31.512Z,37.11
2019-02-26T11:02:30.256Z,37.59
2019-02-26T11:03:30.130Z,38.26
2019-02-26T11:04:34.901Z,37.40
2019-02-26T11:05:29.902Z,36.46
2019-02-26T11:06:30.551Z,36.27
2019-02-26T11:07:31.828Z,35.96
2019-02-26T11:08:30.513Z,35.96
2019-02-26T11:09:31.817Z,36.06
2019-02-26T11:10:29.297Z,36.06
2019-02-26T11:11:30.599Z,35.50
2019-02-26T11:12:33.353Z,35.88
2019-02-26T11:13:28.903Z,35.79
2019-02-26T11:14:30.933Z,36.00
2019-02-26T11:15:31.046Z,35.61
2019-02-26T11:16:30.462Z,34.87
2019-02-26T11:17:28.918Z,34.75
2019-02-26T11:18:28.295Z,35.24
2019-02-26T11:19:33.282Z,35.04
2019-02-26T11:20:30.814Z,35.71
2019-02-26T11:21:27.938Z,35.14
2019-02-26T11:22:28.159Z,34.67
2019-02-26T11:23:31.231Z,34.10
2019-02-26T11:24:28.803Z,33.64
2019-02-26T11:25:27.747Z,33.45
2019-02-26T11:26:27.326Z,33.06
2019-02-26T11:27:27.207Z,32.47
2019-02-26T11:28:29.678Z,33.04
2019-02-26T11:29:30.429Z,33.06
2019-02-26T11:30:29.338Z,32.95
2019-02-26T11:31:26.723Z,32.76
2019-02-26T11:32:27.820Z,32.87
2019-02-26T11:33:26.483Z,32.20
2019-02-26T11:34:28.556Z,31.34
2019-02-26T11:35:27.390Z,31.90
2019-02-26T11:36:27.803Z,33.14
2019-02-26T11:37:27.147Z,33.04
2019-02-26T11:38:25.880Z,34.00
2019-02-26T11:39:25.758Z,33.81
2019-02-26T11:40:29.692Z,33.54
2019-02-26T11:41:26.452Z,33.33
2019-02-26T11:42:26.233Z,32.67
2019-02-26T11:43:27.099Z,32.76
2019-02-26T11:44:25.907Z,32.47
2019-02-26T11:45:25.033Z,32.57
2019-02-26T11:46:27.131Z,31.71
2019-02-26T11:47:25.656Z,31.13
2019-02-26T11:48:25.849Z,32.07
2019-02-26T11:49:24.579Z,32.28
2019-02-26T11:50:28.077Z,32.86
2019-02-26T11:51:24.321Z,33.16
2019-02-26T11:52:24.191Z,32.57
2019-02-26T11:53:24.080Z,31.63
2019-02-26T11:54:23.949Z,31.24
2019-02-26T11:55:26.144Z,30.08
2019-02-26T11:56:25.794Z,30.27
2019-02-26T11:57:23.587Z,30.46
2019-02-26T11:58:24.283Z,31.23
2019-02-26T11:59:23.351Z,31.30
2019-02-26T12:00:25.674Z,31.88
2019-02-26T12:01:23.133Z,32.47
2019-02-26T12:02:29.415Z,31.71
2019-02-26T12:03:25.357Z,31.90
2019-02-26T12:04:22.744Z,31.90
2019-02-26T12:05:24.955Z,31.43
2019-02-26T12:06:22.504Z,30.57
2019-02-26T12:07:24.730Z,30.47
2019-02-26T12:08:25.017Z,30.36
2019-02-26T12:09:22.146Z,30.18
2019-02-26T12:10:22.090Z,31.02
2019-02-26T12:11:23.281Z,32.93
2019-02-26T12:12:23.474Z,33.80
2019-02-26T12:13:22.336Z,33.41
2019-02-26T12:14:21.674Z,33.32
2019-02-26T12:15:21.415Z,33.33
2019-02-26T12:16:21.695Z,32.86
2019-02-26T12:17:21.174Z,32.28
2019-02-26T12:18:22.458Z,32.09
2019-02-26T12:19:22.943Z,31.51
2019-02-26T12:20:22.054Z,31.04
2019-02-26T12:21:20.698Z,31.32
2019-02-26T12:22:22.589Z,32.49
2019-02-26T12:23:22.799Z,33.37
2019-02-26T12:24:20.329Z,32.31
2019-02-26T12:25:20.206Z,31.07
2019-02-26T12:26:22.310Z,30.02
2019-02-26T12:27:20.915Z,28.22
2019-02-26T12:28:19.851Z,28.12
2019-02-26T12:29:21.057Z,28.99
2019-02-26T12:30:21.369Z,29.74
2019-02-26T12:31:19.485Z,30.41
2019-02-26T12:32:21.764Z,31.35
2019-02-26T12:33:19.243Z,31.16
2019-02-26T12:34:20.854Z,30.60
2019-02-26T12:35:19.024Z,30.60
2019-02-26T12:36:18.884Z,30.51
2019-02-26T12:37:18.768Z,30.30
2019-02-26T12:39:18.763Z,30.86
2019-02-26T12:40:19.355Z,31.05
2019-02-26T12:41:20.505Z,31.07
2019-02-26T12:42:18.728Z,30.09
2019-02-26T12:43:19.277Z,29.02
2019-02-26T12:44:17.923Z,28.06
2019-02-26T12:45:17.815Z,27.70
2019-02-26T12:46:19.779Z,27.89
2019-02-26T12:47:21.503Z,28.96
2019-02-26T12:48:20.206Z,30.41
2019-02-26T12:49:18.456Z,29.66
2019-02-26T12:50:17.202Z,28.22
2019-02-26T12:51:19.217Z,27.93
2019-02-26T12:52:17.985Z,27.45